sensor_id;sensor_type;location;lat;lon;timestamp;pressure;altitude;pressure_sealevel;temperature;humidity
36664;BME280;53333;51.976;20.144;2024-03-23T00:54:35;99371.38;;;10.51;69.47
36664;BME280;53333;51.976;20.144;2024-03-23T00:57:07;99367.00;;;10.50;69.43
36664;BME280;53333;51.976;20.144;2024-03-23T00:59:37;99361.66;;;10.50;69.61
36664;BME280;53333;51.976;20.144;2024-03-23T01:02:09;99360.78;;;10.49;69.71
36664;BME280;53333;51.976;20.144;2024-03-23T01:04:40;99360.88;;;10.48;69.95
36664;BME280;53333;51.976;20.144;2024-03-23T01:07:12;99358.09;;;10.49;70.06
36664;BME280;53333;51.976;20.144;2024-03-23T01:09:44;99352.09;;;10.46;70.26
36664;BME280;53333;51.976;20.144;2024-03-23T01:12:15;99353.72;;;10.48;70.13
36664;BME280;53333;51.976;20.144;2024-03-23T01:14:46;99360.78;;;10.49;70.23
36664;BME280;53333;51.976;20.144;2024-03-23T01:17:18;99350.19;;;10.48;70.50
36664;BME280;53333;51.976;20.144;2024-03-23T01:19:49;99353.66;;;10.50;70.46
36664;BME280;53333;51.976;20.144;2024-03-23T01:22:21;99345.63;;;10.50;70.65
36664;BME280;53333;51.976;20.144;2024-03-23T01:24:53;99338.47;;;10.50;70.67
36664;BME280;53333;51.976;20.144;2024-03-23T01:27:25;99338.28;;;10.53;70.58
36664;BME280;53333;51.976;20.144;2024-03-23T01:29:55;99340.88;;;10.55;70.58
36664;BME280;53333;51.976;20.144;2024-03-23T01:32:27;99340.88;;;10.55;70.71
36664;BME280;53333;51.976;20.144;2024-03-23T01:34:58;99340.09;;;10.53;70.80
36664;BME280;53333;51.976;20.144;2024-03-23T01:37:30;99341.03;;;10.52;70.88
36664;BME280;53333;51.976;20.144;2024-03-23T01:40:02;99338.47;;;10.50;70.97
36664;BME280;53333;51.976;20.144;2024-03-23T01:42:34;99331.41;;;10.49;71.01
36664;BME280;53333;51.976;20.144;2024-03-23T01:45:07;99324.38;;;10.48;71.31
36664;BME280;53333;51.976;20.144;2024-03-23T01:47:40;99322.53;;;10.49;71.17
36664;BME280;53333;51.976;20.144;2024-03-23T01:50:11;99326.06;;;10.49;71.33
36664;BME280;53333;51.976;20.144;2024-03-23T01:52:42;99322.44;;;10.50;71.33
36664;BME280;53333;51.976;20.144;2024-03-23T01:55:15;99322.34;;;10.52;71.35
36664;BME280;53333;51.976;20.144;2024-03-23T01:57:46;99325.03;;;10.52;71.39
36664;BME280;53333;51.976;20.144;2024-03-23T02:00:17;99327.78;;;10.50;71.36
36664;BME280;53333;51.976;20.144;2024-03-23T02:02:49;99319.97;;;10.47;71.39
36664;BME280;53333;51.976;20.144;2024-03-23T02:05:20;99320.06;;;10.46;71.18
36664;BME280;53333;51.976;20.144;2024-03-23T02:07:52;99315.75;;;10.43;71.72
36664;BME280;53333;51.976;20.144;2024-03-23T02:10:24;99315.00;;;10.41;71.74
36664;BME280;53333;51.976;20.144;2024-03-23T02:12:56;99309.84;;;10.38;71.81
36664;BME280;53333;51.976;20.144;2024-03-23T02:15:27;99307.28;;;10.36;71.83
36664;BME280;53333;51.976;20.144;2024-03-23T02:17:58;99310.13;;;10.33;71.94
36664;BME280;53333;51.976;20.144;2024-03-23T02:20:29;99296.00;;;10.31;72.02
36664;BME280;53333;51.976;20.144;2024-03-23T02:23:02;99299.78;;;10.27;72.27
36664;BME280;53333;51.976;20.144;2024-03-23T02:25:33;99299.03;;;10.25;72.20
36664;BME280;53333;51.976;20.144;2024-03-23T02:28:05;99296.47;;;10.24;72.32
36664;BME280;53333;51.976;20.144;2024-03-23T02:30:36;99285.88;;;10.22;72.37
36664;BME280;53333;51.976;20.144;2024-03-23T02:33:08;99288.53;;;10.22;72.49
36664;BME280;53333;51.976;20.144;2024-03-23T02:35:39;99287.59;;;10.23;72.46
36664;BME280;53333;51.976;20.144;2024-03-23T02:38:12;99292.06;;;10.23;72.39
36664;BME280;53333;51.976;20.144;2024-03-23T02:40:43;99281.38;;;10.23;72.54
36664;BME280;53333;51.976;20.144;2024-03-23T02:43:14;99276.03;;;10.23;72.55
36664;BME280;53333;51.976;20.144;2024-03-23T02:45:45;99273.50;;;10.21;72.35
36664;BME280;53333;51.976;20.144;2024-03-23T02:48:17;99275.28;;;10.21;72.72
36664;BME280;53333;51.976;20.144;2024-03-23T02:50:48;99278.84;;;10.21;72.71
36664;BME280;53333;51.976;20.144;2024-03-23T02:53:21;99277.03;;;10.22;72.93
36664;BME280;53333;51.976;20.144;2024-03-23T02:55:52;99282.34;;;10.22;72.73
36664;BME280;53333;51.976;20.144;2024-03-23T02:58:26;99277.03;;;10.22;72.72
36664;BME280;53333;51.976;20.144;2024-03-23T03:00:57;99276.03;;;10.23;72.80
36664;BME280;53333;51.976;20.144;2024-03-23T03:03:29;99262.59;;;10.24;72.86
36664;BME280;53333;51.976;20.144;2024-03-23T03:06:00;99267.94;;;10.24;72.72
36664;BME280;53333;51.976;20.144;2024-03-23T03:08:33;99264.34;;;10.25;72.87
36664;BME280;53333;51.976;20.144;2024-03-23T03:11:04;99262.59;;;10.24;72.64
36664;BME280;53333;51.976;20.144;2024-03-23T03:13:35;99264.34;;;10.25;72.85
36664;BME280;53333;51.976;20.144;2024-03-23T03:16:08;99258.91;;;10.27;72.74
36664;BME280;53333;51.976;20.144;2024-03-23T03:18:40;99262.56;;;10.40;72.35
36664;BME280;53333;51.976;20.144;2024-03-23T03:21:11;99257.00;;;10.29;72.28
36664;BME280;53333;51.976;20.144;2024-03-23T03:23:44;99259.00;;;10.25;72.57
36664;BME280;53333;51.976;20.144;2024-03-23T03:26:15;99262.59;;;10.24;72.59
36664;BME280;53333;51.976;20.144;2024-03-23T03:28:47;99259.09;;;10.24;72.80
36664;BME280;53333;51.976;20.144;2024-03-23T03:31:19;99258.25;;;10.23;72.92
36664;BME280;53333;51.976;20.144;2024-03-23T03:33:51;99255.56;;;10.23;72.80
36664;BME280;53333;51.976;20.144;2024-03-23T03:36:22;99255.56;;;10.23;72.89
36664;BME280;53333;51.976;20.144;2024-03-23T03:38:55;99248.50;;;10.22;73.08
36664;BME280;53333;51.976;20.144;2024-03-23T03:41:26;99243.19;;;10.22;72.93
36664;BME280;53333;51.976;20.144;2024-03-23T03:43:58;99235.16;;;10.22;73.11
36664;BME280;53333;51.976;20.144;2024-03-23T03:46:32;99224.50;;;10.22;73.14
36664;BME280;53333;51.976;20.144;2024-03-23T03:49:04;99227.16;;;10.22;73.20
36664;BME280;53333;51.976;20.144;2024-03-23T03:51:36;99229.81;;;10.22;73.22
36664;BME280;53333;51.976;20.144;2024-03-23T03:54:09;99229.81;;;10.22;73.28
36664;BME280;53333;51.976;20.144;2024-03-23T03:56:40;99226.31;;;10.22;73.29
36664;BME280;53333;51.976;20.144;2024-03-23T03:59:11;99226.31;;;10.22;73.22
36664;BME280;53333;51.976;20.144;2024-03-23T04:01:42;99221.91;;;10.21;73.44
36664;BME280;53333;51.976;20.144;2024-03-23T04:04:14;99221.91;;;10.21;73.46
36664;BME280;53333;51.976;20.144;2024-03-23T04:06:47;99222.00;;;10.19;73.31
36664;BME280;53333;51.976;20.144;2024-03-23T04:09:20;99222.09;;;10.17;73.63
36664;BME280;53333;51.976;20.144;2024-03-23T04:11:51;99220.41;;;10.16;73.50
36664;BME280;53333;51.976;20.144;2024-03-23T04:14:22;99213.34;;;10.15;73.50
36664;BME280;53333;51.976;20.144;2024-03-23T04:16:53;99210.69;;;10.15;73.51
36664;BME280;53333;51.976;20.144;2024-03-23T04:19:26;99206.28;;;10.14;73.52
36664;BME280;53333;51.976;20.144;2024-03-23T04:21:57;99200.09;;;10.14;73.71
36664;BME280;53333;51.976;20.144;2024-03-23T04:24:30;99203.53;;;10.16;73.74
36664;BME280;53333;51.976;20.144;2024-03-23T04:27:01;99197.34;;;10.15;73.68
36664;BME280;53333;51.976;20.144;2024-03-23T04:29:33;99197.34;;;10.15;73.75
36664;BME280;53333;51.976;20.144;2024-03-23T04:32:05;99189.31;;;10.15;73.88
36664;BME280;53333;51.976;20.144;2024-03-23T04:34:37;99185.53;;;10.20;73.81
36664;BME280;53333;51.976;20.144;2024-03-23T04:37:08;99180.19;;;10.20;73.56
36664;BME280;53333;51.976;20.144;2024-03-23T04:39:41;99185.53;;;10.20;73.70
36664;BME280;53333;51.976;20.144;2024-03-23T04:42:14;99187.31;;;10.19;73.76
36664;BME280;53333;51.976;20.144;2024-03-23T04:44:46;99187.22;;;10.21;73.65
36664;BME280;53333;51.976;20.144;2024-03-23T04:47:18;99177.53;;;10.20;73.71
36664;BME280;53333;51.976;20.144;2024-03-23T04:49:50;99177.53;;;10.20;73.78
36664;BME280;53333;51.976;20.144;2024-03-23T04:52:24;99172.19;;;10.20;73.90
36664;BME280;53333;51.976;20.144;2024-03-23T04:54:59;99165.97;;;10.19;73.84
36664;BME280;53333;51.976;20.144;2024-03-23T04:57:31;99169.41;;;10.21;73.87
36664;BME280;53333;51.976;20.144;2024-03-23T05:00:02;99171.13;;;10.22;73.83
36664;BME280;53333;51.976;20.144;2024-03-23T05:02:35;99162.25;;;10.22;73.83
36664;BME280;53333;51.976;20.144;2024-03-23T05:05:06;99170.19;;;10.23;73.92
36664;BME280;53333;51.976;20.144;2024-03-23T05:07:38;99169.09;;;10.26;73.90
36664;BME280;53333;51.976;20.144;2024-03-23T05:10:10;99159.31;;;10.26;73.99
36664;BME280;53333;51.976;20.144;2024-03-23T05:12:44;99153.00;;;10.27;73.85
36664;BME280;53333;51.976;20.144;2024-03-23T05:15:16;99163.56;;;10.29;74.03
36664;BME280;53333;51.976;20.144;2024-03-23T05:17:47;99154.53;;;10.31;73.98
36664;BME280;53333;51.976;20.144;2024-03-23T05:20:19;99151.69;;;10.34;73.97
36664;BME280;53333;51.976;20.144;2024-03-23T05:22:50;99149.78;;;10.36;74.01
36664;BME280;53333;51.976;20.144;2024-03-23T05:25:23;99130.91;;;10.40;73.86
36664;BME280;53333;51.976;20.144;2024-03-23T05:27:54;99137.88;;;10.42;73.83
36664;BME280;53333;51.976;20.144;2024-03-23T05:30:26;99136.69;;;10.46;73.90
36664;BME280;53333;51.976;20.144;2024-03-23T05:32:56;99131.16;;;10.49;73.93
36664;BME280;53333;51.976;20.144;2024-03-23T05:35:28;99131.72;;;10.54;73.85
36664;BME280;53333;51.976;20.144;2024-03-23T05:37:59;99128.84;;;10.58;73.82
36664;BME280;53333;51.976;20.144;2024-03-23T05:40:32;99135.06;;;10.58;73.80
36664;BME280;53333;51.976;20.144;2024-03-23T05:43:03;99134.97;;;10.60;73.83
36664;BME280;53333;51.976;20.144;2024-03-23T05:45:35;99138.47;;;10.60;73.82
36664;BME280;53333;51.976;20.144;2024-03-23T05:48:06;99139.22;;;10.62;73.71
36664;BME280;53333;51.976;20.144;2024-03-23T05:50:38;99142.69;;;10.64;73.54
36664;BME280;53333;51.976;20.144;2024-03-23T05:53:09;99132.66;;;10.68;73.52
36664;BME280;53333;51.976;20.144;2024-03-23T05:55:43;99133.50;;;10.68;73.48
36664;BME280;53333;51.976;20.144;2024-03-23T05:58:14;99130.72;;;10.70;73.44
36664;BME280;53333;51.976;20.144;2024-03-23T06:00:46;99126.91;;;10.74;73.66
36664;BME280;53333;51.976;20.144;2024-03-23T06:03:17;99115.03;;;10.78;73.29
36664;BME280;53333;51.976;20.144;2024-03-23T06:05:49;99114.75;;;10.83;73.28
36664;BME280;53333;51.976;20.144;2024-03-23T06:08:20;99127.78;;;10.87;73.22
36664;BME280;53333;51.976;20.144;2024-03-23T06:10:53;99114.97;;;10.93;73.21
36664;BME280;53333;51.976;20.144;2024-03-23T06:13:24;99113.84;;;10.97;73.09
36664;BME280;53333;51.976;20.144;2024-03-23T06:16:00;99106.56;;;10.99;72.95
36664;BME280;53333;51.976;20.144;2024-03-23T06:18:31;99110.84;;;11.01;72.68
36664;BME280;53333;51.976;20.144;2024-03-23T06:21:03;99110.66;;;11.04;72.66
36664;BME280;53333;51.976;20.144;2024-03-23T06:23:34;99110.44;;;11.07;72.68
36664;BME280;53333;51.976;20.144;2024-03-23T06:26:07;99098.78;;;11.08;72.42
36664;BME280;53333;51.976;20.144;2024-03-23T06:28:39;99104.78;;;11.12;72.25
36664;BME280;53333;51.976;20.144;2024-03-23T06:31:10;99106.38;;;11.15;72.14
36664;BME280;53333;51.976;20.144;2024-03-23T06:33:41;99095.78;;;11.13;72.16
36664;BME280;53333;51.976;20.144;2024-03-23T06:36:13;99092.28;;;11.13;72.06
36664;BME280;53333;51.976;20.144;2024-03-23T06:38:44;99104.03;;;11.10;72.07
36664;BME280;53333;51.976;20.144;2024-03-23T06:41:17;99096.22;;;11.07;72.18
36664;BME280;53333;51.976;20.144;2024-03-23T06:43:48;99090.88;;;11.07;72.14
36664;BME280;53333;51.976;20.144;2024-03-23T06:46:20;99082.63;;;11.10;71.88
36664;BME280;53333;51.976;20.144;2024-03-23T06:48:51;99076.34;;;11.11;71.74
36664;BME280;53333;51.976;20.144;2024-03-23T06:51:22;99072.94;;;11.09;71.72
36664;BME280;53333;51.976;20.144;2024-03-23T06:53:53;99069.19;;;11.12;71.81
36664;BME280;53333;51.976;20.144;2024-03-23T06:56:26;99076.88;;;11.16;71.57
36664;BME280;53333;51.976;20.144;2024-03-23T06:58:57;99076.47;;;11.22;71.55
36664;BME280;53333;51.976;20.144;2024-03-23T07:01:29;99058.41;;;11.26;71.26
36664;BME280;53333;51.976;20.144;2024-03-23T07:04:00;99052.72;;;11.31;71.31
36664;BME280;53333;51.976;20.144;2024-03-23T07:06:32;99047.91;;;11.36;71.16
36664;BME280;53333;51.976;20.144;2024-03-23T07:09:03;99045.59;;;11.44;71.12
36664;BME280;53333;51.976;20.144;2024-03-23T07:11:36;99046.63;;;11.54;70.92
36664;BME280;53333;51.976;20.144;2024-03-23T07:14:07;99039.88;;;11.61;70.61
36664;BME280;53333;51.976;20.144;2024-03-23T07:16:39;99042.78;;;11.71;70.48
36664;BME280;53333;51.976;20.144;2024-03-23T07:19:10;99038.81;;;11.77;70.23
36664;BME280;53333;51.976;20.144;2024-03-23T07:21:42;99032.06;;;11.84;70.01
36664;BME280;53333;51.976;20.144;2024-03-23T07:24:13;99041.03;;;11.96;69.70
36664;BME280;53333;51.976;20.144;2024-03-23T07:26:46;99042.63;;;12.11;69.59
36664;BME280;53333;51.976;20.144;2024-03-23T07:29:17;99036.25;;;12.25;69.25
36664;BME280;53333;51.976;20.144;2024-03-23T07:31:49;99039.22;;;12.33;68.71
36664;BME280;53333;51.976;20.144;2024-03-23T07:34:20;99036.06;;;12.40;68.61
36664;BME280;53333;51.976;20.144;2024-03-23T07:36:52;99033.59;;;12.49;68.21
36664;BME280;53333;51.976;20.144;2024-03-23T07:39:23;99031.31;;;12.56;68.20
36664;BME280;53333;51.976;20.144;2024-03-23T07:41:56;99031.09;;;12.59;67.73
36664;BME280;53333;51.976;20.144;2024-03-23T07:44:27;99027.19;;;12.63;67.75
36664;BME280;53333;51.976;20.144;2024-03-23T07:47:00;99023.09;;;12.70;67.65
36664;BME280;53333;51.976;20.144;2024-03-23T07:49:31;99023.75;;;12.85;67.15
36664;BME280;53333;51.976;20.144;2024-03-23T07:52:03;99019.28;;;12.97;66.96
36664;BME280;53333;51.976;20.144;2024-03-23T07:54:34;99014.09;;;13.18;66.69
36664;BME280;53333;51.976;20.144;2024-03-23T07:57:07;99010.13;;;13.47;65.71
36664;BME280;53333;51.976;20.144;2024-03-23T07:59:38;99009.41;;;13.90;65.34
36664;BME280;53333;51.976;20.144;2024-03-23T08:02:10;98993.84;;;14.48;63.74
36664;BME280;53333;51.976;20.144;2024-03-23T08:04:41;98977.38;;;15.06;62.44
36664;BME280;53333;51.976;20.144;2024-03-23T08:07:13;98972.31;;;15.75;61.28
36664;BME280;53333;51.976;20.144;2024-03-23T08:09:44;98961.84;;;16.61;59.28
36664;BME280;53333;51.976;20.144;2024-03-23T08:12:17;98954.13;;;17.53;56.79
36664;BME280;53333;51.976;20.144;2024-03-23T08:14:48;98953.56;;;18.50;54.46
36664;BME280;53333;51.976;20.144;2024-03-23T08:17:20;98960.25;;;19.53;52.13
36664;BME280;53333;51.976;20.144;2024-03-23T08:19:50;98949.94;;;20.58;49.01
36664;BME280;53333;51.976;20.144;2024-03-23T08:22:23;98950.59;;;21.51;46.71
36664;BME280;53333;51.976;20.144;2024-03-23T08:24:54;98945.94;;;22.39;44.41
36664;BME280;53333;51.976;20.144;2024-03-23T08:27:27;98941.72;;;23.20;42.72
36664;BME280;53333;51.976;20.144;2024-03-23T08:29:58;98933.78;;;24.15;40.88
36664;BME280;53333;51.976;20.144;2024-03-23T08:32:29;98942.38;;;24.98;38.86
36664;BME280;53333;51.976;20.144;2024-03-23T08:35:00;98933.63;;;25.60;37.39
36664;BME280;53333;51.976;20.144;2024-03-23T08:37:32;98928.41;;;26.20;36.32
36664;BME280;53333;51.976;20.144;2024-03-23T08:40:03;98919.31;;;26.81;34.68
36664;BME280;53333;51.976;20.144;2024-03-23T08:42:36;98926.25;;;26.70;34.50
36664;BME280;53333;51.976;20.144;2024-03-23T08:45:08;98918.69;;;26.86;34.14
36664;BME280;53333;51.976;20.144;2024-03-23T08:47:40;98921.72;;;26.36;34.73
36664;BME280;53333;51.976;20.144;2024-03-23T08:50:10;98926.09;;;25.75;34.73
36664;BME280;53333;51.976;20.144;2024-03-23T08:52:42;98910.69;;;24.54;36.51
36664;BME280;53333;51.976;20.144;2024-03-23T08:55:13;98904.13;;;23.31;37.64
36664;BME280;53333;51.976;20.144;2024-03-23T08:57:46;98904.91;;;22.17;38.96
36664;BME280;53333;51.976;20.144;2024-03-23T09:00:17;98900.06;;;21.17;40.34
36664;BME280;53333;51.976;20.144;2024-03-23T09:02:49;98901.09;;;20.25;42.02
36664;BME280;53333;51.976;20.144;2024-03-23T09:05:20;98885.94;;;19.47;43.15
36664;BME280;53333;51.976;20.144;2024-03-23T09:07:52;98889.50;;;19.13;43.97
36664;BME280;53333;51.976;20.144;2024-03-23T09:10:23;98883.19;;;19.04;44.32
36664;BME280;53333;51.976;20.144;2024-03-23T09:12:56;98869.84;;;19.37;44.51
36664;BME280;53333;51.976;20.144;2024-03-23T09:15:27;98858.06;;;20.39;42.72
36664;BME280;53333;51.976;20.144;2024-03-23T09:17:59;98852.31;;;21.79;40.42
36664;BME280;53333;51.976;20.144;2024-03-23T09:20:32;98840.19;;;23.42;38.68
36664;BME280;53333;51.976;20.144;2024-03-23T09:23:04;98840.56;;;25.40;35.41
36664;BME280;53333;51.976;20.144;2024-03-23T09:25:38;98822.63;;;26.87;32.98
36664;BME280;53333;51.976;20.144;2024-03-23T09:28:11;98821.47;;;28.51;30.70
36664;BME280;53333;51.976;20.144;2024-03-23T09:30:42;98817.56;;;30.01;28.88
36664;BME280;53333;51.976;20.144;2024-03-23T09:33:14;98806.06;;;31.41;26.47
36664;BME280;53333;51.976;20.144;2024-03-23T09:35:45;98799.28;;;32.47;25.34
36664;BME280;53333;51.976;20.144;2024-03-23T09:38:17;98788.25;;;33.64;27.00
36664;BME280;53333;51.976;20.144;2024-03-23T09:40:50;98786.72;;;34.61;23.63
36664;BME280;53333;51.976;20.144;2024-03-23T09:43:25;98772.56;;;35.42;21.54
36664;BME280;53333;51.976;20.144;2024-03-23T09:45:56;98768.06;;;36.41;23.82
36664;BME280;53333;51.976;20.144;2024-03-23T09:48:28;98759.94;;;37.06;20.85
36664;BME280;53333;51.976;20.144;2024-03-23T09:50:59;98758.59;;;37.63;19.30
36664;BME280;53333;51.976;20.144;2024-03-23T09:53:31;98753.28;;;38.12;18.55
36664;BME280;53333;51.976;20.144;2024-03-23T09:56:03;98751.06;;;38.14;18.20
36664;BME280;53333;51.976;20.144;2024-03-23T09:58:36;98748.19;;;37.90;20.43
36664;BME280;53333;51.976;20.144;2024-03-23T10:01:07;98736.09;;;37.60;18.62
36664;BME280;53333;51.976;20.144;2024-03-23T10:03:43;98727.97;;;37.74;17.92
36664;BME280;53333;51.976;20.144;2024-03-23T10:06:14;98731.06;;;38.07;17.33
36664;BME280;53333;51.976;20.144;2024-03-23T10:08:53;98718.22;;;38.45;17.37
36664;BME280;53333;51.976;20.144;2024-03-23T10:11:24;98709.25;;;39.07;18.52
36664;BME280;53333;51.976;20.144;2024-03-23T10:13:59;98705.56;;;39.55;16.27
36664;BME280;53333;51.976;20.144;2024-03-23T10:16:29;98712.06;;;39.69;18.05
36664;BME280;53333;51.976;20.144;2024-03-23T10:19:01;98704.03;;;39.44;16.43
36664;BME280;53333;51.976;20.144;2024-03-23T10:21:32;98700.28;;;39.53;16.02
36664;BME280;53333;51.976;20.144;2024-03-23T10:24:08;98694.53;;;39.45;15.69
36664;BME280;53333;51.976;20.144;2024-03-23T10:26:40;98691.94;;;39.29;16.02
36664;BME280;53333;51.976;20.144;2024-03-23T10:29:13;98683.47;;;39.15;15.91
36664;BME280;53333;51.976;20.144;2024-03-23T10:31:48;98676.09;;;39.24;15.59
36664;BME280;53333;51.976;20.144;2024-03-23T10:34:24;98685.34;;;39.20;17.20
36664;BME280;53333;51.976;20.144;2024-03-23T10:36:56;98689.66;;;38.59;16.56
36664;BME280;53333;51.976;20.144;2024-03-23T10:39:30;98687.16;;;38.28;16.09
36664;BME280;53333;51.976;20.144;2024-03-23T10:42:05;98683.22;;;37.94;16.27
36664;BME280;53333;51.976;20.144;2024-03-23T10:44:38;98681.16;;;38.15;16.05
36664;BME280;53333;51.976;20.144;2024-03-23T10:47:10;98681.25;;;38.00;16.28
36664;BME280;53333;51.976;20.144;2024-03-23T10:49:40;98678.34;;;37.81;16.67
36664;BME280;53333;51.976;20.144;2024-03-23T10:52:12;98685.69;;;37.61;16.35
36664;BME280;53333;51.976;20.144;2024-03-23T10:54:43;98667.19;;;37.36;16.15
36664;BME280;53333;51.976;20.144;2024-03-23T10:57:23;98669.22;;;37.65;16.80
36664;BME280;53333;51.976;20.144;2024-03-23T10:59:58;98666.28;;;37.91;16.17
36664;BME280;53333;51.976;20.144;2024-03-23T11:02:30;98668.59;;;37.84;16.03
36664;BME280;53333;51.976;20.144;2024-03-23T11:05:01;98650.50;;;37.81;16.29
36664;BME280;53333;51.976;20.144;2024-03-23T11:07:33;98645.44;;;37.83;15.98
36664;BME280;53333;51.976;20.144;2024-03-23T11:10:24;98655.22;;;38.20;15.76
36664;BME280;53333;51.976;20.144;2024-03-23T11:12:56;98633.97;;;38.24;15.50
36664;BME280;53333;51.976;20.144;2024-03-23T11:15:28;98620.69;;;38.16;15.41
36664;BME280;53333;51.976;20.144;2024-03-23T11:18:06;98622.91;;;38.14;15.68
36664;BME280;53333;51.976;20.144;2024-03-23T11:20:38;98621.13;;;37.94;15.29
36664;BME280;53333;51.976;20.144;2024-03-23T11:23:26;98606.75;;;37.87;15.69
36664;BME280;53333;51.976;20.144;2024-03-23T11:25:57;98602.81;;;37.88;15.26
36664;BME280;53333;51.976;20.144;2024-03-23T11:28:30;98591.66;;;38.22;15.53
36664;BME280;53333;51.976;20.144;2024-03-23T11:31:09;98584.25;;;36.88;15.71
36664;BME280;53333;51.976;20.144;2024-03-23T11:33:41;98588.06;;;35.45;17.06
36664;BME280;53333;51.976;20.144;2024-03-23T11:36:18;98586.78;;;34.79;17.82
36664;BME280;53333;51.976;20.144;2024-03-23T11:38:50;98575.19;;;34.34;18.37
36664;BME280;53333;51.976;20.144;2024-03-23T11:41:21;98580.53;;;34.09;18.16
36664;BME280;53333;51.976;20.144;2024-03-23T11:43:57;98568.38;;;33.72;18.79
36664;BME280;53333;51.976;20.144;2024-03-23T11:47:07;98561.91;;;33.66;18.71
36664;BME280;53333;51.976;20.144;2024-03-23T11:49:39;98563.44;;;33.20;18.89
36664;BME280;53333;51.976;20.144;2024-03-23T11:52:11;98557.75;;;31.65;19.73
36664;BME280;53333;51.976;20.144;2024-03-23T11:54:43;98545.13;;;30.01;21.11
36664;BME280;53333;51.976;20.144;2024-03-23T11:57:14;98540.63;;;28.50;23.01
36664;BME280;53333;51.976;20.144;2024-03-23T11:59:45;98531.97;;;27.09;24.69
36664;BME280;53333;51.976;20.144;2024-03-23T12:02:18;98524.63;;;26.05;26.05
36664;BME280;53333;51.976;20.144;2024-03-23T12:04:50;98520.84;;;25.06;27.01
36664;BME280;53333;51.976;20.144;2024-03-23T12:07:21;98524.28;;;24.11;28.12
36664;BME280;53333;51.976;20.144;2024-03-23T12:10:05;98511.09;;;23.24;29.20
36664;BME280;53333;51.976;20.144;2024-03-23T12:12:36;98506.34;;;22.53;29.86
36664;BME280;53333;51.976;20.144;2024-03-23T12:15:09;98507.16;;;21.87;30.77
36664;BME280;53333;51.976;20.144;2024-03-23T12:17:43;98500.22;;;21.31;32.10
36664;BME280;53333;51.976;20.144;2024-03-23T12:20:15;98488.09;;;20.81;32.67
36664;BME280;53333;51.976;20.144;2024-03-23T12:22:45;98501.53;;;20.43;33.53
36664;BME280;53333;51.976;20.144;2024-03-23T12:25:17;98493.03;;;20.14;34.18
36664;BME280;53333;51.976;20.144;2024-03-23T12:27:48;98487.56;;;19.91;34.83
36664;BME280;53333;51.976;20.144;2024-03-23T12:30:20;98477.94;;;19.72;35.40
36664;BME280;53333;51.976;20.144;2024-03-23T12:32:52;98468.34;;;19.53;35.65
36664;BME280;53333;51.976;20.144;2024-03-23T12:35:24;98465.66;;;19.37;36.03
36664;BME280;53333;51.976;20.144;2024-03-23T12:38:20;98453.00;;;19.29;36.61
36664;BME280;53333;51.976;20.144;2024-03-23T12:40:52;98449.78;;;19.34;36.55
36664;BME280;53333;51.976;20.144;2024-03-23T12:43:23;98444.66;;;19.47;36.95
36664;BME280;53333;51.976;20.144;2024-03-23T12:45:55;98429.53;;;19.69;37.16
36664;BME280;53333;51.976;20.144;2024-03-23T12:48:27;98419.81;;;19.91;36.86
36664;BME280;53333;51.976;20.144;2024-03-23T12:50:59;98437.88;;;19.99;36.54
36664;BME280;53333;51.976;20.144;2024-03-23T12:53:29;98432.34;;;19.92;37.04
36664;BME280;53333;51.976;20.144;2024-03-23T12:56:01;98422.25;;;19.78;36.66
36664;BME280;53333;51.976;20.144;2024-03-23T12:58:33;98416.88;;;19.62;36.97
36664;BME280;53333;51.976;20.144;2024-03-23T13:01:11;98418.44;;;19.39;37.09
36664;BME280;53333;51.976;20.144;2024-03-23T13:03:43;98403.78;;;19.17;37.96
36664;BME280;53333;51.976;20.144;2024-03-23T13:06:16;98393.84;;;19.01;37.92
36664;BME280;53333;51.976;20.144;2024-03-23T13:08:47;98390.00;;;18.87;38.10
36664;BME280;53333;51.976;20.144;2024-03-23T13:11:20;98385.72;;;18.77;38.39
36664;BME280;53333;51.976;20.144;2024-03-23T13:13:51;98375.75;;;18.69;38.72
36664;BME280;53333;51.976;20.144;2024-03-23T13:16:23;98368.31;;;18.63;39.23
36664;BME280;53333;51.976;20.144;2024-03-23T13:18:56;98371.88;;;18.55;39.47
36664;BME280;53333;51.976;20.144;2024-03-23T13:21:27;98367.84;;;18.51;39.81
36664;BME280;53333;51.976;20.144;2024-03-23T13:23:59;98363.25;;;18.43;40.04
36664;BME280;53333;51.976;20.144;2024-03-23T13:26:30;98362.22;;;18.36;39.89
36664;BME280;53333;51.976;20.144;2024-03-23T13:29:02;98352.09;;;18.30;40.45
36664;BME280;53333;51.976;20.144;2024-03-23T13:31:33;98356.50;;;18.23;40.30
36664;BME280;53333;51.976;20.144;2024-03-23T13:34:13;98356.31;;;18.16;40.34
36664;BME280;53333;51.976;20.144;2024-03-23T13:36:49;98352.56;;;18.09;40.89
36664;BME280;53333;51.976;20.144;2024-03-23T13:39:22;98352.56;;;18.01;40.60
36664;BME280;53333;51.976;20.144;2024-03-23T13:41:53;98343.28;;;17.95;41.05
36664;BME280;53333;51.976;20.144;2024-03-23T13:44:26;98328.59;;;17.89;41.28
36664;BME280;53333;51.976;20.144;2024-03-23T13:46:57;98329.22;;;17.83;41.07
36664;BME280;53333;51.976;20.144;2024-03-23T13:49:31;98316.19;;;17.78;41.34
36664;BME280;53333;51.976;20.144;2024-03-23T13:52:03;98321.31;;;17.90;40.24
36664;BME280;53333;51.976;20.144;2024-03-23T13:54:42;98314.53;;;17.77;41.20
36664;BME280;53333;51.976;20.144;2024-03-23T13:57:16;98309.47;;;17.74;41.35
36664;BME280;53333;51.976;20.144;2024-03-23T13:59:51;98303.03;;;17.75;41.64
36664;BME280;53333;51.976;20.144;2024-03-23T14:02:24;98295.47;;;17.79;41.83
36664;BME280;53333;51.976;20.144;2024-03-23T14:04:58;98290.06;;;17.79;42.08
36664;BME280;53333;51.976;20.144;2024-03-23T14:07:29;98290.91;;;17.79;42.32
36664;BME280;53333;51.976;20.144;2024-03-23T14:10:02;98287.38;;;17.79;42.52